Volgo-balt 229 — UHZF — position and weather

sailwx.info

Track history (hours):
 
Tides and Currents Weather Stations Pressure Air Temp Water Temp Dewpoint Dewpoint Depression Visibility Wind Speed Wind Dir Waves Ship Positions

Volgo-balt 229

Last reported at 2017-Jan-20 17:33 UTC. Time now 2017-Jan-21 17:20 UTC.
Position N 53°35' E 014°35'.

Length 113 m; draft 3.8 m.

Type: Ship. MMSI: 273336300.

Date/timePositionNaut miles runAvg speedWind from/ knotsBaromVisibWave heightAir tempDewpointWater temp
2017-Jan-20 17:33N 53°35' E 014°35'6 6.3
2017-Jan-20 16:33N 53°41' E 014°30'4 4.3
2017-Jan-20 15:33N 53°44' E 014°26'148 4.5
2017-Jan-19 06:33N 54°54' E 018°09'5 4.9
2017-Jan-19 05:31N 54°55' E 018°18'5 5.3
2017-Jan-19 04:33N 54°54' E 018°26'5 5.3
2017-Jan-19 03:33N 54°52' E 018°35'6 5.6
2017-Jan-19 02:33N 54°50' E 018°44'7 6.8
2017-Jan-19 01:33N 54°51' E 018°56'7 6.7
2017-Jan-19 00:33N 54°51' E 019°07'6 6.0
2017-Jan-18 23:33N 54°52' E 019°18'  
2017-Jan-13 10:34N 54°58' E 015°22'8 8.2
2017-Jan-13 09:33N 54°58' E 015°08'8 8.2
2017-Jan-13 08:33N 54°58' E 014°54'7 7.5
2017-Jan-13 07:34N 54°59' E 014°41'8 8.1
2017-Jan-13 06:34N 55°04' E 014°30'8 8.4
2017-Jan-13 05:33N 55°10' E 014°20'9 8.5
2017-Jan-13 04:30N 55°11' E 014°04'34 8.6
2017-Jan-13 00:33N 55°14' E 013°05'9 8.6
2017-Jan-12 23:33N 55°15' E 012°50'8 8.2
2017-Jan-12 22:33N 55°18' E 012°37'8 8.3
2017-Jan-12 21:33N 55°26' E 012°40'9 9.3
2017-Jan-12 20:33N 55°35' E 012°42'1010.1
2017-Jan-12 19:33N 55°45' E 012°41'9 8.7
2017-Jan-12 18:33N 55°54' E 012°39'3 2.6
2017-Jan-12 17:33N 55°56' E 012°41'0 0.0
2017-Jan-12 16:33N 55°56' E 012°41'0 0.0
2017-Jan-12 15:33N 55°56' E 012°41'0 0.0
2017-Jan-12 14:33N 55°56' E 012°41'0 0.0
2017-Jan-12 13:33N 55°56' E 012°41'0 0.0
2017-Jan-12 12:33N 55°56' E 012°41'0 0.0
2017-Jan-12 11:33N 55°56' E 012°41'0 0.0
2017-Jan-12 10:33N 55°56' E 012°41'0 0.0
2017-Jan-12 09:33N 55°56' E 012°41'0 0.0
2017-Jan-12 08:33N 55°56' E 012°41'0 0.0
2017-Jan-12 07:33N 55°56' E 012°41'0 0.0
2017-Jan-12 06:33N 55°56' E 012°41'0 0.0
2017-Jan-12 05:33N 55°56' E 012°41'0 0.0
2017-Jan-12 04:33N 55°56' E 012°41'0 0.0
2017-Jan-12 03:33N 55°56' E 012°41'0 0.0
2017-Jan-12 02:33N 55°56' E 012°41'0 0.0
2017-Jan-12 01:33N 55°56' E 012°41'0 0.0
2017-Jan-12 00:33N 55°56' E 012°41'0 0.0
2017-Jan-11 23:33N 55°56' E 012°41'0 0.0
2017-Jan-11 22:33N 55°56' E 012°41'0 0.0
2017-Jan-11 21:33N 55°56' E 012°41'0 0.0
2017-Jan-11 20:33N 55°56' E 012°41'0 0.0
2017-Jan-11 19:33N 55°56' E 012°41'0 0.0
2017-Jan-11 18:33N 55°56' E 012°41'0 0.0
2017-Jan-11 17:33N 55°56' E 012°41'0 0.0
2017-Jan-11 16:33N 55°56' E 012°41'0 0.0
2017-Jan-11 15:33N 55°56' E 012°41'0 0.0
2017-Jan-11 14:33N 55°56' E 012°41'0 0.0
2017-Jan-11 13:33N 55°56' E 012°41'0 0.0
2017-Jan-11 12:33N 55°56' E 012°41'  
Track history (hours):
 
Tides and Currents Weather Stations Pressure Air Temp Water Temp Dewpoint Dewpoint Depression Visibility Wind Speed Wind Dir Waves Ship Positions

Volgo-balt 229

Last reported at 2017-Jan-20 17:33 UTC. Time now 2017-Jan-21 17:20 UTC.
Position N 53°35' E 014°35'.

Length 113 m; draft 3.8 m.

Type: Ship. MMSI: 273336300.

Date/timePositionNaut miles runAvg speedWind from/ knotsBaromVisibWave heightAir tempDewpointWater temp
2017-Jan-20 17:33N 53°35' E 014°35'6 6.3
2017-Jan-20 16:33N 53°41' E 014°30'4 4.3
2017-Jan-20 15:33N 53°44' E 014°26'148 4.5
2017-Jan-19 06:33N 54°54' E 018°09'5 4.9
2017-Jan-19 05:31N 54°55' E 018°18'5 5.3
2017-Jan-19 04:33N 54°54' E 018°26'5 5.3
2017-Jan-19 03:33N 54°52' E 018°35'6 5.6
2017-Jan-19 02:33N 54°50' E 018°44'7 6.8
2017-Jan-19 01:33N 54°51' E 018°56'7 6.7
2017-Jan-19 00:33N 54°51' E 019°07'6 6.0
2017-Jan-18 23:33N 54°52' E 019°18'  
2017-Jan-13 10:34N 54°58' E 015°22'8 8.2
2017-Jan-13 09:33N 54°58' E 015°08'8 8.2
2017-Jan-13 08:33N 54°58' E 014°54'7 7.5
2017-Jan-13 07:34N 54°59' E 014°41'8 8.1
2017-Jan-13 06:34N 55°04' E 014°30'8 8.4
2017-Jan-13 05:33N 55°10' E 014°20'9 8.5
2017-Jan-13 04:30N 55°11' E 014°04'34 8.6
2017-Jan-13 00:33N 55°14' E 013°05'9 8.6
2017-Jan-12 23:33N 55°15' E 012°50'8 8.2
2017-Jan-12 22:33N 55°18' E 012°37'8 8.3
2017-Jan-12 21:33N 55°26' E 012°40'9 9.3
2017-Jan-12 20:33N 55°35' E 012°42'1010.1
2017-Jan-12 19:33N 55°45' E 012°41'9 8.7
2017-Jan-12 18:33N 55°54' E 012°39'3 2.6
2017-Jan-12 17:33N 55°56' E 012°41'0 0.0
2017-Jan-12 16:33N 55°56' E 012°41'0 0.0
2017-Jan-12 15:33N 55°56' E 012°41'0 0.0
2017-Jan-12 14:33N 55°56' E 012°41'0 0.0
2017-Jan-12 13:33N 55°56' E 012°41'0 0.0
2017-Jan-12 12:33N 55°56' E 012°41'0 0.0
2017-Jan-12 11:33N 55°56' E 012°41'0 0.0
2017-Jan-12 10:33N 55°56' E 012°41'0 0.0
2017-Jan-12 09:33N 55°56' E 012°41'0 0.0
2017-Jan-12 08:33N 55°56' E 012°41'0 0.0
2017-Jan-12 07:33N 55°56' E 012°41'0 0.0
2017-Jan-12 06:33N 55°56' E 012°41'0 0.0
2017-Jan-12 05:33N 55°56' E 012°41'0 0.0
2017-Jan-12 04:33N 55°56' E 012°41'0 0.0
2017-Jan-12 03:33N 55°56' E 012°41'0 0.0
2017-Jan-12 02:33N 55°56' E 012°41'0 0.0
2017-Jan-12 01:33N 55°56' E 012°41'0 0.0
2017-Jan-12 00:33N 55°56' E 012°41'0 0.0
2017-Jan-11 23:33N 55°56' E 012°41'0 0.0
2017-Jan-11 22:33N 55°56' E 012°41'0 0.0
2017-Jan-11 21:33N 55°56' E 012°41'0 0.0
2017-Jan-11 20:33N 55°56' E 012°41'0 0.0
2017-Jan-11 19:33N 55°56' E 012°41'0 0.0
2017-Jan-11 18:33N 55°56' E 012°41'0 0.0
2017-Jan-11 17:33N 55°56' E 012°41'0 0.0
2017-Jan-11 16:33N 55°56' E 012°41'0 0.0
2017-Jan-11 15:33N 55°56' E 012°41'0 0.0
2017-Jan-11 14:33N 55°56' E 012°41'0 0.0
2017-Jan-11 13:33N 55°56' E 012°41'0 0.0
2017-Jan-11 12:33N 55°56' E 012°41'  

Dump ship's entire track history